Time;durP1;ratioP1;P1;durP2;ratioP2;P2;SDS_P1;SDS_P2;PMS_P1;PMS_P2;Temp;Humidity;BMP_temperature;BMP_pressure;BME280_temperature;BME280_humidity;BME280_pressure;Samples;Min_cycle;Max_cycle;Signal;HPM_P1;HPM_P2
2022/11/23 00:00:58;;;;;;;7.07;4.50;;;7.80;99.90;;;;;;5020916;28;20236;-66
2022/11/23 00:03:24;;;;;;;7.22;4.32;;;7.80;99.90;;;;;;5008248;28;20226;-67
2022/11/23 00:05:50;;;;;;;6.43;4.47;;;7.80;99.90;;;;;;5020516;28;20116;-67
2022/11/23 00:08:15;;;;;;;9.47;4.70;;;7.90;99.90;;;;;;5023941;28;20037;-67
2022/11/23 00:10:41;;;;;;;9.23;4.53;;;7.80;99.90;;;;;;5020948;28;20298;-67
2022/11/23 00:13:06;;;;;;;6.67;4.33;;;7.90;99.90;;;;;;5019766;28;20049;-66
2022/11/23 00:15:32;;;;;;;6.67;4.33;;;7.90;99.90;;;;;;5017322;28;20140;-67
2022/11/23 00:17:59;;;;;;;8.57;4.83;;;7.90;99.90;;;;;;5013844;28;20058;-66
2022/11/23 00:20:25;;;;;;;8.20;4.28;;;7.90;99.90;;;;;;5020202;28;20045;-67
2022/11/23 00:22:50;;;;;;;10.40;4.43;;;7.90;99.90;;;;;;5020346;28;20082;-67
2022/11/23 00:25:16;;;;;;;7.77;4.30;;;7.90;99.90;;;;;;5020434;28;20072;-66
2022/11/23 00:27:42;;;;;;;13.90;4.90;;;8.00;99.90;;;;;;5021631;28;20279;-66
2022/11/23 00:30:08;;;;;;;10.73;4.00;;;7.90;99.90;;;;;;5021425;28;20251;-67
2022/11/23 00:32:33;;;;;;;8.00;4.35;;;8.00;99.90;;;;;;5000312;28;20080;-67
2022/11/23 00:34:59;;;;;;;9.40;4.93;;;7.90;99.90;;;;;;5019149;28;20537;-67
2022/11/23 00:37:24;;;;;;;7.17;3.77;;;8.00;99.90;;;;;;5018322;28;20068;-67
2022/11/23 00:39:50;;;;;;;7.43;4.23;;;8.00;99.90;;;;;;5017737;28;20170;-66
2022/11/23 00:42:16;;;;;;;8.30;4.13;;;8.00;99.90;;;;;;5019542;28;20052;-67
2022/11/23 00:44:41;;;;;;;6.63;4.23;;;8.00;99.90;;;;;;5017651;28;20037;-67
2022/11/23 00:47:07;;;;;;;8.57;4.97;;;8.00;99.90;;;;;;5017705;28;20112;-67
2022/11/23 00:49:32;;;;;;;9.00;4.23;;;8.10;99.90;;;;;;5020301;28;20061;-67
2022/11/23 00:51:58;;;;;;;8.07;4.37;;;8.10;99.90;;;;;;5019392;28;20418;-67
2022/11/23 00:54:23;;;;;;;11.63;4.43;;;8.10;99.90;;;;;;5020193;28;20131;-66
2022/11/23 00:56:49;;;;;;;10.63;5.17;;;8.10;99.90;;;;;;5020924;28;20045;-66
2022/11/23 00:59:15;;;;;;;9.23;4.07;;;8.10;99.90;;;;;;5014981;28;20077;-67
2022/11/23 01:01:40;;;;;;;11.37;4.87;;;8.10;99.90;;;;;;5019502;28;20048;-67
2022/11/23 01:04:07;;;;;;;6.97;4.23;;;8.10;99.90;;;;;;5016761;28;20064;-67
2022/11/23 01:06:38;;;;;;;9.10;4.45;;;8.10;99.90;;;;;;5019842;28;20111;-67
2022/11/23 01:09:17;;;;;;;12.07;4.10;;;8.10;99.90;;;;;;5021369;28;20049;-67
2022/11/23 01:11:43;;;;;;;6.85;4.40;;;8.10;99.90;;;;;;5019025;28;20042;-67
2022/11/23 01:14:09;;;;;;;7.95;4.63;;;8.10;99.90;;;;;;5015757;28;20073;-66
2022/11/23 01:16:37;;;;;;;9.48;4.43;;;8.10;99.90;;;;;;5021870;28;20045;-67
2022/11/23 01:19:09;;;;;;;10.48;4.90;;;8.10;99.90;;;;;;5019461;28;20125;-66
2022/11/23 01:21:38;;;;;;;10.18;4.85;;;8.10;99.90;;;;;;5019616;28;20041;-67
2022/11/23 01:24:07;;;;;;;9.82;4.90;;;8.10;99.90;;;;;;5011638;28;20334;-67
2022/11/23 01:26:33;;;;;;;11.95;5.30;;;8.10;99.90;;;;;;5022126;28;20052;-66
2022/11/23 01:28:58;;;;;;;6.75;4.32;;;8.10;99.90;;;;;;5023534;28;20084;-67
2022/11/23 01:31:25;;;;;;;6.97;4.73;;;8.20;99.90;;;;;;5016941;28;20041;-67
2022/11/23 01:33:58;;;;;;;12.63;5.55;;;8.10;99.90;;;;;;5019064;28;20302;-67
2022/11/23 01:36:30;;;;;;;7.40;4.32;;;8.10;99.90;;;;;;5019620;28;20423;-67
2022/11/23 01:38:57;;;;;;;11.60;4.30;;;8.20;99.90;;;;;;5019820;28;20037;-66
2022/11/23 01:41:26;;;;;;;13.68;4.65;;;8.20;99.90;;;;;;5017721;28;20073;-66
2022/11/23 01:43:52;;;;;;;11.07;5.07;;;8.20;99.90;;;;;;5020368;28;20099;-67
2022/11/23 01:46:18;;;;;;;9.88;4.72;;;8.20;99.90;;;;;;5018931;28;20312;-67
2022/11/23 01:48:54;;;;;;;7.70;4.93;;;8.20;99.90;;;;;;5020395;28;20124;-67
2022/11/23 01:51:33;;;;;;;8.48;5.20;;;8.20;99.90;;;;;;5017587;28;20048;-66
2022/11/23 01:54:10;;;;;;;9.75;4.75;;;8.20;99.90;;;;;;5008994;28;20561;-67
2022/11/23 01:56:40;;;;;;;9.85;4.82;;;8.20;99.90;;;;;;5001005;28;20068;-67
2022/11/23 01:59:13;;;;;;;9.02;4.40;;;8.20;99.90;;;;;;5020634;28;20099;-66
2022/11/23 02:01:39;;;;;;;11.32;5.30;;;8.20;99.90;;;;;;5018944;28;20129;-67
2022/11/23 02:04:10;;;;;;;10.02;4.82;;;8.20;99.90;;;;;;5020916;28;20511;-67
2022/11/23 02:06:36;;;;;;;11.15;5.07;;;8.20;99.90;;;;;;5021932;28;20077;-66
2022/11/23 02:09:02;;;;;;;11.48;5.35;;;8.20;99.90;;;;;;5023230;28;20553;-67
2022/11/23 02:11:28;;;;;;;17.90;5.67;;;8.20;99.90;;;;;;5023056;28;20319;-67
2022/11/23 02:13:56;;;;;;;13.63;5.63;;;8.20;99.90;;;;;;5017932;28;20061;-66
2022/11/23 02:16:24;;;;;;;12.95;5.40;;;8.20;99.90;;;;;;5029306;28;20512;-66
2022/11/23 02:18:51;;;;;;;11.30;5.22;;;8.20;99.90;;;;;;5021616;28;20404;-66
2022/11/23 02:21:17;;;;;;;8.95;5.85;;;8.30;99.90;;;;;;5021079;28;20075;-66
2022/11/23 02:23:43;;;;;;;13.30;5.80;;;8.30;99.90;;;;;;5023828;28;20037;-66
2022/11/23 02:26:12;;;;;;;11.67;5.47;;;8.30;99.90;;;;;;5023484;28;20045;-67
2022/11/23 02:29:06;;;;;;;9.73;5.65;;;8.30;99.90;;;;;;5016532;28;20040;-67
2022/11/23 02:31:32;;;;;;;15.13;6.22;;;8.30;99.90;;;;;;5020350;28;20311;-68
2022/11/23 02:33:58;;;;;;;14.13;6.90;;;8.30;99.90;;;;;;5024183;28;20282;-67
2022/11/23 02:36:30;;;;;;;14.55;6.05;;;8.30;99.90;;;;;;5017956;28;20051;-66
2022/11/23 02:38:58;;;;;;;13.52;6.63;;;8.30;99.90;;;;;;5022470;28;20084;-66
2022/11/23 02:41:24;;;;;;;12.63;6.30;;;8.30;99.90;;;;;;5020944;28;20131;-67
2022/11/23 02:43:55;;;;;;;15.80;7.33;;;8.30;99.90;;;;;;5022339;28;20048;-66
2022/11/23 02:46:21;;;;;;;18.73;7.95;;;8.30;99.90;;;;;;5023400;28;20080;-67
2022/11/23 02:48:46;;;;;;;11.90;6.37;;;8.30;99.90;;;;;;5027711;28;20073;-66
2022/11/23 02:51:12;;;;;;;14.47;7.23;;;8.30;99.90;;;;;;5025186;28;20060;-66
2022/11/23 02:53:38;;;;;;;14.00;6.03;;;8.40;99.90;;;;;;5015841;28;20045;-66
2022/11/23 02:56:04;;;;;;;13.60;7.03;;;8.30;99.90;;;;;;5024124;28;20039;-75
2022/11/23 02:58:29;;;;;;;17.43;6.93;;;8.30;99.90;;;;;;5018201;28;20128;-66
2022/11/23 03:00:55;;;;;;;14.53;6.30;;;8.30;99.90;;;;;;5022760;28;20340;-67
2022/11/23 03:03:21;;;;;;;12.18;6.70;;;8.30;99.90;;;;;;5023379;28;20129;-66
2022/11/23 03:05:46;;;;;;;15.97;6.67;;;8.30;99.90;;;;;;5023684;28;20053;-67
2022/11/23 03:08:12;;;;;;;14.00;6.93;;;8.20;99.90;;;;;;5022898;28;20578;-66
2022/11/23 03:10:38;;;;;;;15.17;7.40;;;8.30;99.90;;;;;;5004159;28;20048;-66
2022/11/23 03:13:03;;;;;;;14.40;7.80;;;8.30;99.90;;;;;;5017304;28;20237;-66
2022/11/23 03:15:29;;;;;;;16.47;7.03;;;8.30;99.90;;;;;;5020925;28;20033;-67
2022/11/23 03:17:56;;;;;;;19.13;7.67;;;8.20;99.90;;;;;;5025000;28;20124;-67
2022/11/23 03:20:21;;;;;;;15.98;7.75;;;8.30;99.90;;;;;;5022219;28;20363;-67
2022/11/23 03:22:47;;;;;;;17.13;7.63;;;8.20;99.90;;;;;;5021786;28;20514;-65
2022/11/23 03:25:13;;;;;;;14.13;7.30;;;8.20;99.90;;;;;;5021254;28;20053;-65
2022/11/23 03:27:38;;;;;;;13.77;7.40;;;8.20;99.90;;;;;;5022318;28;20056;-64
2022/11/23 03:30:06;;;;;;;18.23;8.27;;;8.20;99.90;;;;;;5023882;28;20048;-65
2022/11/23 03:32:31;;;;;;;19.40;8.45;;;8.20;99.90;;;;;;5023773;28;20116;-65
2022/11/23 03:34:57;;;;;;;15.60;7.30;;;8.20;99.90;;;;;;5020604;28;20156;-65
2022/11/23 03:37:24;;;;;;;16.70;8.57;;;8.20;99.90;;;;;;5023021;28;20059;-66
2022/11/23 03:39:49;;;;;;;18.90;8.90;;;8.20;99.90;;;;;;5026837;28;20121;-65
2022/11/23 03:42:15;;;;;;;18.30;7.80;;;8.20;99.90;;;;;;5027243;28;20139;-65
2022/11/23 03:44:41;;;;;;;15.53;7.43;;;8.10;99.90;;;;;;5023241;28;20071;-65
2022/11/23 03:47:06;;;;;;;25.73;10.40;;;8.20;99.90;;;;;;5021617;28;20049;-65
2022/11/23 03:49:32;;;;;;;19.17;7.77;;;8.20;99.90;;;;;;5017932;28;20049;-67
2022/11/23 03:51:57;;;;;;;18.40;7.57;;;8.20;99.90;;;;;;5025329;28;20112;-65
2022/11/23 03:54:23;;;;;;;17.87;8.27;;;8.20;99.90;;;;;;5021049;28;20108;-64
2022/11/23 03:56:49;;;;;;;15.90;8.47;;;8.20;99.90;;;;;;5024472;28;20116;-65
2022/11/23 03:59:14;;;;;;;16.87;8.07;;;8.10;99.90;;;;;;5026320;28;20045;-70
2022/11/23 04:01:40;;;;;;;18.47;8.43;;;8.20;99.90;;;;;;5024299;28;20041;-77
2022/11/23 04:04:05;;;;;;;14.57;8.43;;;8.10;99.90;;;;;;5009616;28;20045;-67
2022/11/23 04:06:31;;;;;;;16.07;8.63;;;8.10;99.90;;;;;;5026146;28;20081;-66
2022/11/23 04:08:57;;;;;;;18.40;8.63;;;8.20;99.90;;;;;;5021725;28;20037;-65
2022/11/23 04:11:22;;;;;;;20.07;9.03;;;8.10;99.90;;;;;;5026416;28;20380;-66
2022/11/23 04:13:48;;;;;;;23.97;10.10;;;8.10;99.90;;;;;;5021139;28;20045;-67
2022/11/23 04:16:14;;;;;;;19.30;9.47;;;8.10;99.90;;;;;;5023614;28;20063;-67
2022/11/23 04:18:39;;;;;;;17.97;8.00;;;8.10;99.90;;;;;;5026069;28;20069;-66
2022/11/23 04:21:05;;;;;;;21.33;8.83;;;8.10;99.90;;;;;;5026680;28;20030;-67
2022/11/23 04:23:30;;;;;;;18.00;9.53;;;8.10;99.90;;;;;;4998284;28;22244;-68
2022/11/23 04:25:56;;;;;;;19.20;10.20;;;8.10;99.90;;;;;;5019565;28;20029;-67
2022/11/23 04:28:24;;;;;;;25.23;10.20;;;8.10;99.90;;;;;;5024426;23;20171;-71
2022/11/23 04:30:50;;;;;;;22.27;9.57;;;8.10;99.90;;;;;;4997625;28;20061;-71
2022/11/23 04:33:15;;;;;;;20.97;9.60;;;8.10;99.90;;;;;;5000084;28;20045;-71
2022/11/23 04:35:41;;;;;;;19.77;9.63;;;8.10;99.90;;;;;;5016532;28;20186;-71
2022/11/23 04:38:07;;;;;;;21.47;9.83;;;8.10;99.90;;;;;;5016105;28;20045;-71
2022/11/23 04:40:32;;;;;;;22.40;10.33;;;8.10;99.90;;;;;;5012247;28;20042;-71
2022/11/23 04:42:58;;;;;;;20.60;10.03;;;8.10;99.90;;;;;;5016348;28;20087;-72
2022/11/23 04:45:24;;;;;;;21.13;10.82;;;8.00;99.90;;;;;;5013801;28;20129;-71
2022/11/23 04:47:50;;;;;;;19.23;9.93;;;8.10;99.90;;;;;;5017179;28;20136;-71
2022/11/23 04:50:15;;;;;;;24.50;11.17;;;8.00;99.90;;;;;;5018535;28;20037;-70
2022/11/23 04:52:41;;;;;;;25.33;11.57;;;8.10;99.90;;;;;;5012396;28;20644;-71
2022/11/23 04:55:07;;;;;;;25.67;11.23;;;8.10;99.90;;;;;;5017002;28;20069;-71
2022/11/23 04:57:32;;;;;;;24.42;11.60;;;8.10;99.90;;;;;;5011807;28;20103;-70
2022/11/23 04:59:58;;;;;;;27.00;11.63;;;8.10;99.90;;;;;;5010958;28;20045;-70
2022/11/23 05:02:23;;;;;;;26.63;10.27;;;8.10;99.90;;;;;;5010491;28;20038;-70
2022/11/23 05:04:49;;;;;;;27.50;10.80;;;8.00;99.90;;;;;;5014262;28;20041;-70
2022/11/23 05:07:15;;;;;;;22.67;11.07;;;8.10;99.90;;;;;;5009249;28;20129;-70
2022/11/23 05:09:40;;;;;;;24.00;11.20;;;8.10;99.90;;;;;;5019073;28;20113;-70
2022/11/23 05:12:06;;;;;;;26.53;10.90;;;8.10;99.90;;;;;;5020492;28;20061;-70
2022/11/23 05:14:32;;;;;;;25.50;11.70;;;8.10;99.90;;;;;;5010683;28;20045;-70
2022/11/23 05:17:00;;;;;;;24.10;10.75;;;8.10;99.90;;;;;;5012356;28;20275;-70
2022/11/23 05:19:26;;;;;;;27.97;13.77;;;8.10;99.90;;;;;;5012034;28;20068;-70
2022/11/23 05:21:52;;;;;;;21.97;11.27;;;8.10;99.90;;;;;;5012223;28;20508;-70
2022/11/23 05:24:17;;;;;;;24.40;12.47;;;8.10;99.90;;;;;;5022538;28;20128;-70
2022/11/23 05:26:43;;;;;;;22.33;11.50;;;8.10;99.90;;;;;;5004225;28;20327;-70
2022/11/23 05:29:08;;;;;;;23.40;10.80;;;8.10;99.90;;;;;;5021125;28;20049;-70
2022/11/23 05:31:34;;;;;;;27.43;11.40;;;8.10;99.90;;;;;;5020006;28;20403;-71
2022/11/23 05:33:59;;;;;;;22.80;11.07;;;8.10;99.90;;;;;;5009681;28;20092;-71
2022/11/23 05:36:25;;;;;;;26.70;10.47;;;8.10;99.90;;;;;;5015349;28;20055;-70
2022/11/23 05:38:51;;;;;;;29.70;11.53;;;8.10;99.90;;;;;;5001649;28;20065;-71
2022/11/23 05:41:19;;;;;;;22.60;11.03;;;8.10;99.90;;;;;;5013470;28;20057;-71
2022/11/23 05:43:45;;;;;;;24.13;10.65;;;8.10;99.90;;;;;;5007702;28;20502;-71
2022/11/23 05:46:11;;;;;;;21.97;11.27;;;8.10;99.90;;;;;;5015826;28;20029;-70
2022/11/23 05:48:39;;;;;;;20.08;10.70;;;8.10;99.90;;;;;;5017165;28;20033;-70
2022/11/23 05:51:05;;;;;;;25.70;11.40;;;8.10;99.90;;;;;;5021755;28;20040;-70
2022/11/23 05:53:31;;;;;;;23.60;11.50;;;8.10;99.90;;;;;;5014440;28;20503;-71
2022/11/23 05:56:00;;;;;;;22.00;9.87;;;8.10;99.90;;;;;;5013605;28;20038;-70
2022/11/23 05:58:27;;;;;;;26.73;11.25;;;8.10;99.90;;;;;;5019301;28;20270;-70
2022/11/23 06:00:59;;;;;;;21.08;11.05;;;8.10;99.90;;;;;;5013375;28;20046;-71
2022/11/23 06:03:25;;;;;;;25.45;11.15;;;8.10;99.90;;;;;;5010542;28;20076;-70
2022/11/23 06:05:51;;;;;;;29.10;11.83;;;8.10;99.90;;;;;;5012384;28;20683;-70
2022/11/23 06:08:19;;;;;;;26.20;10.73;;;8.00;99.90;;;;;;5028361;28;20129;-70
2022/11/23 06:10:50;;;;;;;25.05;11.52;;;8.10;99.90;;;;;;5013109;28;20127;-70
2022/11/23 06:13:16;;;;;;;22.90;9.57;;;8.10;99.90;;;;;;5004041;28;20033;-71
2022/11/23 06:15:44;;;;;;;30.83;11.02;;;8.10;99.90;;;;;;5013185;28;20045;-70
2022/11/23 06:18:12;;;;;;;20.73;9.47;;;8.10;99.90;;;;;;5013830;28;20052;-70
2022/11/23 06:20:40;;;;;;;20.98;10.55;;;8.10;99.90;;;;;;5014035;28;20059;-70
2022/11/23 06:23:06;;;;;;;26.63;9.48;;;8.10;99.90;;;;;;5000710;28;20037;-70
2022/11/23 06:25:31;;;;;;;20.47;9.57;;;8.10;99.90;;;;;;5015635;28;20077;-70
2022/11/23 06:27:59;;;;;;;22.67;10.33;;;8.00;99.90;;;;;;5018097;28;20045;-70
2022/11/23 06:30:26;;;;;;;24.58;9.70;;;8.10;99.90;;;;;;5013303;28;20147;-70
2022/11/23 06:32:52;;;;;;;18.42;9.30;;;8.10;99.90;;;;;;5006680;28;20033;-69
2022/11/23 06:35:18;;;;;;;16.80;9.47;;;8.00;99.90;;;;;;5012127;28;20040;-70
2022/11/23 06:37:44;;;;;;;17.42;8.32;;;8.00;99.90;;;;;;5012525;28;20046;-70
2022/11/23 06:40:11;;;;;;;17.03;8.73;;;8.00;99.90;;;;;;5020665;28;20052;-70
2022/11/23 06:42:36;;;;;;;17.75;8.90;;;8.10;99.90;;;;;;5018217;28;20295;-70
2022/11/23 06:45:06;;;;;;;22.83;9.93;;;8.00;99.90;;;;;;5011751;28;20053;-70
2022/11/23 06:47:31;;;;;;;18.95;8.88;;;8.00;99.90;;;;;;5005457;28;20464;-70
2022/11/23 06:49:57;;;;;;;19.90;9.13;;;8.00;99.90;;;;;;5032226;28;20046;-71
2022/11/23 06:52:23;;;;;;;16.50;7.63;;;8.00;99.90;;;;;;5018211;28;20128;-70
2022/11/23 06:54:48;;;;;;;17.33;8.33;;;8.00;99.90;;;;;;5022837;28;20119;-69
2022/11/23 06:57:14;;;;;;;19.67;9.00;;;7.90;99.90;;;;;;5024305;28;20041;-70
2022/11/23 06:59:39;;;;;;;16.00;8.40;;;8.00;99.90;;;;;;5017507;28;20045;-69
2022/11/23 07:02:05;;;;;;;16.07;7.43;;;7.90;99.90;;;;;;5016846;28;20495;-70
2022/11/23 07:04:31;;;;;;;13.15;7.00;;;7.90;99.90;;;;;;5016741;28;20045;-69
2022/11/23 07:06:56;;;;;;;14.53;7.13;;;7.90;99.90;;;;;;5013485;28;20126;-69
2022/11/23 07:09:22;;;;;;;12.97;6.83;;;7.90;99.90;;;;;;5017958;28;20354;-69
2022/11/23 07:11:48;;;;;;;14.17;6.70;;;7.90;99.90;;;;;;5009071;28;20061;-70
2022/11/23 07:14:13;;;;;;;15.00;5.90;;;7.90;99.90;;;;;;5019698;28;20041;-69
2022/11/23 07:16:39;;;;;;;14.83;7.17;;;7.90;99.90;;;;;;5015574;28;20073;-70
2022/11/23 07:19:04;;;;;;;14.20;6.67;;;7.90;99.90;;;;;;5017200;28;20526;-70
2022/11/23 07:21:32;;;;;;;17.47;6.67;;;7.90;99.90;;;;;;5019027;28;20037;-70
2022/11/23 07:23:58;;;;;;;15.35;5.85;;;7.90;99.90;;;;;;5016166;28;20036;-69
2022/11/23 07:26:26;;;;;;;14.50;6.07;;;7.80;99.90;;;;;;5021668;28;20367;-70
2022/11/23 07:28:52;;;;;;;12.67;5.57;;;7.90;99.90;;;;;;5020493;28;20037;-70
2022/11/23 07:31:18;;;;;;;14.43;6.23;;;7.90;99.90;;;;;;5016311;28;20061;-70
2022/11/23 07:33:46;;;;;;;10.50;5.77;;;7.80;99.90;;;;;;5017937;28;20431;-70
2022/11/23 07:36:13;;;;;;;11.73;5.78;;;7.90;99.90;;;;;;5012436;28;20032;-70
2022/11/23 07:38:39;;;;;;;11.38;6.30;;;7.80;99.90;;;;;;5019127;28;20053;-70
2022/11/23 07:41:04;;;;;;;11.48;5.63;;;7.80;99.90;;;;;;5019446;28;20041;-70
2022/11/23 07:43:30;;;;;;;13.05;6.00;;;7.90;99.90;;;;;;5019346;28;20041;-70
2022/11/23 07:45:56;;;;;;;12.97;5.30;;;7.90;99.90;;;;;;5013682;28;20133;-70
2022/11/23 07:48:23;;;;;;;11.05;5.13;;;7.80;99.90;;;;;;5013768;28;20060;-70
2022/11/23 07:50:51;;;;;;;11.30;5.22;;;7.90;99.90;;;;;;5014162;28;20049;-70
2022/11/23 07:53:17;;;;;;;9.52;5.07;;;7.90;99.90;;;;;;5016732;28;20107;-70
2022/11/23 07:55:42;;;;;;;11.97;5.63;;;7.90;99.90;;;;;;5011113;28;20072;-70
2022/11/23 07:58:09;;;;;;;10.27;4.57;;;7.90;99.90;;;;;;5031367;28;20042;-70
2022/11/23 08:00:34;;;;;;;8.80;4.32;;;7.90;99.90;;;;;;5009259;28;20041;-70
2022/11/23 08:03:00;;;;;;;14.00;6.10;;;7.90;99.90;;;;;;5008216;28;20586;-70
2022/11/23 08:05:26;;;;;;;11.47;4.53;;;7.90;99.90;;;;;;5021387;28;20116;-70
2022/11/23 08:07:57;;;;;;;9.02;5.30;;;7.80;99.90;;;;;;5015363;28;20045;-70
2022/11/23 08:10:23;;;;;;;12.18;4.88;;;7.80;99.90;;;;;;5020821;28;20147;-70
2022/11/23 08:12:49;;;;;;;13.23;5.50;;;7.90;99.90;;;;;;5022013;28;20045;-70
2022/11/23 08:15:15;;;;;;;13.60;5.30;;;7.90;99.90;;;;;;5013600;28;20454;-70
2022/11/23 08:17:41;;;;;;;11.10;4.60;;;7.90;99.90;;;;;;5011002;28;20053;-70
2022/11/23 08:20:07;;;;;;;11.43;5.20;;;7.90;99.90;;;;;;5028022;28;20497;-70
2022/11/23 08:22:32;;;;;;;11.55;4.68;;;7.90;99.90;;;;;;5012094;28;20045;-70
2022/11/23 08:24:58;;;;;;;12.73;5.40;;;7.90;99.90;;;;;;5012879;28;20045;-70
2022/11/23 08:27:23;;;;;;;12.77;5.27;;;7.90;99.90;;;;;;5028708;28;20055;-70
2022/11/23 08:29:49;;;;;;;14.90;5.77;;;8.00;99.90;;;;;;5014201;28;20187;-70
2022/11/23 08:32:15;;;;;;;13.13;5.23;;;8.00;99.90;;;;;;5036371;28;20132;-70
2022/11/23 08:34:42;;;;;;;10.97;4.53;;;8.00;99.90;;;;;;5020079;28;20132;-70
2022/11/23 08:37:08;;;;;;;12.10;5.32;;;8.00;99.90;;;;;;5014063;28;20045;-70
2022/11/23 08:39:34;;;;;;;12.20;5.83;;;8.00;99.90;;;;;;5013037;28;20128;-70
2022/11/23 08:41:59;;;;;;;10.57;4.77;;;8.10;99.90;;;;;;5012964;28;20041;-71
2022/11/23 08:44:25;;;;;;;13.13;4.60;;;8.10;99.90;;;;;;5010995;28;20046;-70
2022/11/23 08:46:51;;;;;;;11.97;4.80;;;8.10;99.90;;;;;;5009651;28;20048;-70
2022/11/23 08:49:16;;;;;;;9.47;4.20;;;8.10;99.90;;;;;;5017244;28;20428;-70
2022/11/23 08:51:42;;;;;;;10.50;4.53;;;8.20;99.90;;;;;;5014857;28;20055;-70
2022/11/23 08:54:07;;;;;;;11.50;3.70;;;8.20;99.90;;;;;;5016793;28;20487;-70
2022/11/23 08:56:33;;;;;;;11.77;3.93;;;8.20;99.90;;;;;;5017875;28;20068;-70
2022/11/23 08:58:59;;;;;;;14.77;4.03;;;8.30;99.90;;;;;;5021877;28;20030;-70
2022/11/23 09:01:24;;;;;;;13.53;3.67;;;8.30;99.90;;;;;;5012162;28;20279;-70
2022/11/23 09:03:50;;;;;;;10.77;3.40;;;8.30;99.90;;;;;;5014077;28;20037;-70
2022/11/23 09:06:16;;;;;;;13.10;3.90;;;8.30;99.90;;;;;;4999391;28;20041;-70
2022/11/23 09:08:42;;;;;;;10.15;3.85;;;8.30;99.90;;;;;;5016262;28;20118;-70
2022/11/23 09:11:11;;;;;;;7.17;3.87;;;8.40;99.90;;;;;;5019331;28;20045;-70
2022/11/23 09:13:37;;;;;;;6.75;3.20;;;8.40;99.90;;;;;;5009994;28;20275;-70
2022/11/23 09:16:04;;;;;;;13.32;4.03;;;8.40;99.90;;;;;;5014903;28;20041;-70
2022/11/23 09:18:30;;;;;;;6.78;3.03;;;8.40;99.90;;;;;;5010736;28;20361;-70
2022/11/23 09:20:56;;;;;;;11.27;4.25;;;8.40;99.90;;;;;;5017229;28;20041;-70
2022/11/23 09:23:22;;;;;;;10.77;3.58;;;8.50;99.90;;;;;;5017967;28;20045;-70
2022/11/23 09:25:49;;;;;;;8.32;3.20;;;8.50;99.90;;;;;;5014411;28;20053;-70
2022/11/23 09:28:18;;;;;;;8.75;3.60;;;8.50;99.90;;;;;;5017014;28;20467;-70
2022/11/23 09:30:45;;;;;;;8.85;3.20;;;8.50;99.90;;;;;;5019633;28;20517;-69
2022/11/23 09:33:10;;;;;;;9.90;2.60;;;8.50;99.90;;;;;;5015770;28;20068;-70
2022/11/23 09:35:36;;;;;;;12.23;3.37;;;8.50;99.90;;;;;;5011572;28;20069;-70
2022/11/23 09:38:01;;;;;;;6.13;2.90;;;8.60;99.90;;;;;;5010344;28;20022;-70
2022/11/23 09:40:31;;;;;;;6.27;2.70;;;8.50;99.90;;;;;;5021123;28;20059;-70
2022/11/23 09:43:05;;;;;;;6.47;2.42;;;8.60;99.90;;;;;;5010143;28;20072;-70
2022/11/23 09:45:42;;;;;;;9.55;3.53;;;8.60;99.90;;;;;;5014177;28;20041;-69
2022/11/23 09:48:10;;;;;;;6.65;2.92;;;8.60;99.90;;;;;;5016429;28;20045;-69
2022/11/23 09:50:58;;;;;;;10.25;3.33;;;8.60;99.90;;;;;;4996418;28;20045;-69
2022/11/23 09:53:38;;;;;;;10.85;3.03;;;8.60;99.90;;;;;;5012392;28;20467;-69
2022/11/23 09:56:13;;;;;;;12.68;2.78;;;8.70;99.90;;;;;;4996442;28;20041;-70
2022/11/23 09:58:40;;;;;;;7.28;2.55;;;8.60;99.90;;;;;;5015975;28;20041;-69
2022/11/23 10:01:06;;;;;;;;;;;8.70;99.90;;;;;;5013902;28;20289;-70
2022/11/23 10:03:36;;;;;;;8.43;3.15;;;8.60;99.90;;;;;;5004655;28;19933;-70
2022/11/23 10:06:24;;;;;;;10.77;3.42;;;8.60;99.90;;;;;;5013952;28;20049;-71
2022/11/23 10:09:28;;;;;;;9.15;3.03;;;8.60;99.90;;;;;;5012292;28;20325;-70
2022/11/23 10:12:11;;;;;;;5.22;2.60;;;8.60;99.90;;;;;;5012710;28;20046;-70
2022/11/23 10:15:10;;;;;;;9.32;2.97;;;8.60;99.90;;;;;;5010896;28;20042;-70
2022/11/23 10:17:49;;;;;;;9.48;2.38;;;8.60;99.90;;;;;;5014717;28;20452;-70
2022/11/23 10:20:32;;;;;;;9.55;2.78;;;8.60;99.90;;;;;;5018735;28;20045;-69
2022/11/23 10:23:06;;;;;;;7.95;2.85;;;8.70;99.90;;;;;;4997860;28;20392;-70
2022/11/23 10:25:47;;;;;;;12.68;2.50;;;8.70;99.90;;;;;;5015388;28;20125;-70
2022/11/23 10:28:50;;;;;;;10.07;2.65;;;8.70;99.90;;;;;;5065286;23;20054;-86
2022/11/23 10:31:25;;;;;;;11.60;2.90;;;8.80;99.90;;;;;;4998612;28;20046;-86
2022/11/23 10:34:27;;;;;;;6.53;2.08;;;8.80;99.90;;;;;;5012039;28;20092;-87
2022/11/23 10:37:07;;;;;;;7.03;2.40;;;8.70;99.90;;;;;;5009050;28;20096;-86
2022/11/23 10:39:41;;;;;;;11.30;3.63;;;8.80;99.90;;;;;;4998250;28;20034;-84
2022/11/23 10:42:32;;;;;;;6.80;2.37;;;8.80;99.90;;;;;;5005579;28;20121;-85
2022/11/23 10:45:23;;;;;;;9.70;2.58;;;8.90;99.90;;;;;;4992724;28;20392;-82
2022/11/23 10:48:07;;;;;;;6.45;2.75;;;8.80;99.90;;;;;;5009852;28;20099;-85
2022/11/23 10:50:43;;;;;;;11.38;2.38;;;8.90;99.90;;;;;;5023142;28;20045;-85
2022/11/23 10:53:25;;;;;;;8.02;2.42;;;9.00;99.90;;;;;;5006071;28;20540;-85
2022/11/23 10:56:01;;;;;;;8.02;2.22;;;9.20;99.90;;;;;;5012041;28;20057;-84
2022/11/23 10:58:49;;;;;;;5.72;2.08;;;9.10;99.90;;;;;;4990065;28;20074;-86
2022/11/23 11:01:43;;;;;;;12.02;2.63;;;9.20;99.90;;;;;;5011493;28;20065;-85
2022/11/23 11:04:33;;;;;;;7.85;2.33;;;9.30;99.90;;;;;;4996876;28;20633;-87
2022/11/23 11:07:42;;;;;;;6.57;2.22;;;9.20;99.90;;;;;;5005437;28;20237;-86
2022/11/23 11:11:03;;;;;;;6.20;2.22;;;9.30;99.90;;;;;;5013953;28;20054;-87
2022/11/23 11:14:13;;;;;;;10.98;2.40;;;9.30;99.90;;;;;;4956288;28;20100;-85
2022/11/23 11:17:34;;;;;;;8.40;2.53;;;9.40;99.90;;;;;;4933194;28;20134;-87
2022/11/23 11:20:23;;;;;;;6.65;1.80;;;9.50;99.90;;;;;;4990741;28;20034;-87
2022/11/23 11:23:31;;;;;;;7.82;2.20;;;9.50;99.90;;;;;;5005362;28;20046;-87
2022/11/23 11:26:37;;;;;;;;;;;;;;;;;;;;;
2022/11/23 11:29:29;;;;;;;;;;;9.60;99.90;;;;;;5011848;28;20034;-85
2022/11/23 11:32:36;;;;;;;9.13;2.17;;;9.70;99.90;;;;;;5001536;28;20383;-88
2022/11/23 11:35:10;;;;;;;7.80;1.60;;;9.80;99.90;;;;;;5007429;28;20409;-87
2022/11/23 11:38:11;;;;;;;8.00;1.83;;;10.00;99.90;;;;;;5008868;28;20049;-87
2022/11/23 11:41:07;;;;;;;8.23;2.17;;;10.10;99.90;;;;;;5006855;28;20117;-87
2022/11/23 11:44:03;;;;;;;12.35;1.83;;;10.20;99.90;;;;;;5007415;28;20045;-89
2022/11/23 11:49:55;;;;;;;11.70;1.70;;;10.30;99.90;;;;;;5009372;28;20038;-86
2022/11/23 11:52:59;;;;;;;9.57;2.03;;;10.40;99.90;;;;;;5007256;28;20569;-87
2022/11/23 11:56:55;;;;;;;9.18;1.70;;;10.50;99.90;;;;;;5008876;28;20098;-87
2022/11/23 12:00:33;;;;;;;;;;;;;;;;;;;;;
2022/11/23 12:04:07;;;;;;;6.00;1.85;;;10.70;99.90;;;;;;4855209;29;20053;-89
2022/11/23 12:10:59;;;;;;;;;;;10.90;99.90;;;;;;4891717;29;20135;-87
2022/11/23 12:14:41;;;;;;;7.47;1.42;;;10.90;99.90;;;;;;4881752;28;19977;-87
2022/11/23 12:17:41;;;;;;;6.72;1.27;;;11.00;99.90;;;;;;4855369;29;20053;-88
2022/11/23 12:21:20;;;;;;;;;;;;;;;;;;;;;
2022/11/23 12:27:52;;;;;;;8.43;2.13;;;11.20;99.90;;;;;;4850676;29;20049;-87
2022/11/23 12:31:08;;;;;;;;;;;;;;;;;;;;;
2022/11/23 12:34:16;;;;;;;;;;;;;;;;;;;;;
2022/11/23 12:37:15;;;;;;;6.15;1.40;;;11.20;99.90;;;;;;4881308;29;20472;-88
2022/11/23 12:40:28;;;;;;;3.88;1.67;;;11.10;99.90;;;;;;4891160;29;20150;-89
2022/11/23 12:43:01;;;;;;;6.03;1.20;;;11.00;99.90;;;;;;4861167;29;20040;-88
2022/11/23 12:46:08;;;;;;;7.55;1.40;;;11.10;99.90;;;;;;5012521;28;20034;-86
2022/11/23 12:49:05;;;;;;;5.68;1.45;;;11.10;99.90;;;;;;5007618;28;20041;-87
2022/11/23 12:52:44;;;;;;;10.07;1.73;;;11.00;99.90;;;;;;5009307;28;20343;-87
2022/11/23 12:59:39;;;;;;;8.43;1.58;;;11.00;99.90;;;;;;4954519;28;20229;-87
2022/11/23 13:06:52;;;;;;;6.80;1.52;;;10.90;99.90;;;;;;4915132;29;20130;-90
2022/11/23 13:09:52;;;;;;;4.90;1.20;;;10.80;99.90;;;;;;4992770;23;20144;-68
2022/11/23 13:12:33;;;;;;;8.07;1.50;;;10.80;99.90;;;;;;4984870;28;20089;-68
2022/11/23 13:15:35;;;;;;;6.03;1.40;;;10.80;99.90;;;;;;4990751;28;20041;-68
2022/11/23 13:18:18;;;;;;;14.25;1.25;;;10.80;99.90;;;;;;4975747;28;20484;-68
2022/11/23 13:20:55;;;;;;;9.88;1.50;;;10.80;99.90;;;;;;4986946;28;20045;-68
2022/11/23 13:23:21;;;;;;;12.85;2.08;;;10.80;99.90;;;;;;4984114;28;20107;-69
2022/11/23 13:26:11;;;;;;;7.47;1.30;;;10.80;99.90;;;;;;4991839;28;20472;-68
2022/11/23 13:28:37;;;;;;;4.95;1.38;;;10.80;99.90;;;;;;4987244;28;20049;-68
2022/11/23 13:31:14;;;;;;;8.60;1.40;;;10.90;99.90;;;;;;4988023;28;20034;-69
2022/11/23 13:33:42;;;;;;;8.10;1.38;;;10.80;99.90;;;;;;4983846;28;20066;-68
2022/11/23 13:36:29;;;;;;;6.00;1.13;;;10.70;99.90;;;;;;4963676;28;20093;-69
2022/11/23 13:38:56;;;;;;;6.85;1.38;;;10.60;99.90;;;;;;4977805;28;20044;-69
2022/11/23 13:41:54;;;;;;;3.50;0.90;;;10.50;99.90;;;;;;4983582;28;20125;-69
2022/11/23 13:44:25;;;;;;;9.65;1.38;;;10.50;99.90;;;;;;4958450;28;20551;-69